sensor_id;sensor_type;location;lat;lon;timestamp;temperature;humidity
36004;DHT22;24526;50.918;5.360;2022-08-03T00:01:42;23.30;97.80
36004;DHT22;24526;50.918;5.360;2022-08-03T00:04:08;23.30;97.80
36004;DHT22;24526;50.918;5.360;2022-08-03T00:06:34;23.30;98.00
36004;DHT22;24526;50.918;5.360;2022-08-03T00:09:00;23.20;98.40
36004;DHT22;24526;50.918;5.360;2022-08-03T00:11:25;23.10;98.70
36004;DHT22;24526;50.918;5.360;2022-08-03T00:13:51;23.10;98.40
36004;DHT22;24526;50.918;5.360;2022-08-03T00:16:17;23.30;97.80
36004;DHT22;24526;50.918;5.360;2022-08-03T00:18:42;23.50;97.60
36004;DHT22;24526;50.918;5.360;2022-08-03T00:21:08;23.40;97.50
36004;DHT22;24526;50.918;5.360;2022-08-03T00:23:34;23.40;97.40
36004;DHT22;24526;50.918;5.360;2022-08-03T00:25:59;23.50;97.60
36004;DHT22;24526;50.918;5.360;2022-08-03T00:28:25;23.30;97.50
36004;DHT22;24526;50.918;5.360;2022-08-03T00:30:50;23.30;97.70
36004;DHT22;24526;50.918;5.360;2022-08-03T00:33:16;23.30;97.40
36004;DHT22;24526;50.918;5.360;2022-08-03T00:35:42;23.20;97.70
36004;DHT22;24526;50.918;5.360;2022-08-03T00:38:07;23.10;98.00
36004;DHT22;24526;50.918;5.360;2022-08-03T00:40:33;22.90;98.60
36004;DHT22;24526;50.918;5.360;2022-08-03T00:43:00;22.60;99.40
36004;DHT22;24526;50.918;5.360;2022-08-03T00:45:27;22.40;99.90
36004;DHT22;24526;50.918;5.360;2022-08-03T00:47:53;22.20;99.90
36004;DHT22;24526;50.918;5.360;2022-08-03T00:50:19;22.00;99.90
36004;DHT22;24526;50.918;5.360;2022-08-03T00:52:45;22.10;99.90
36004;DHT22;24526;50.918;5.360;2022-08-03T00:55:11;22.30;99.90
36004;DHT22;24526;50.918;5.360;2022-08-03T00:57:39;22.60;99.90
36004;DHT22;24526;50.918;5.360;2022-08-03T01:00:09;22.70;99.60
36004;DHT22;24526;50.918;5.360;2022-08-03T01:02:36;22.60;99.70
36004;DHT22;24526;50.918;5.360;2022-08-03T01:05:02;22.60;99.80
36004;DHT22;24526;50.918;5.360;2022-08-03T01:12:34;22.70;99.60
36004;DHT22;24526;50.918;5.360;2022-08-03T01:17:33;22.70;99.80
36004;DHT22;24526;50.918;5.360;2022-08-03T01:20:02;22.60;99.90
36004;DHT22;24526;50.918;5.360;2022-08-03T01:30:38;22.60;99.90
36004;DHT22;24526;50.918;5.360;2022-08-03T01:33:10;22.40;99.90
36004;DHT22;24526;50.918;5.360;2022-08-03T01:35:47;22.40;99.90
36004;DHT22;24526;50.918;5.360;2022-08-03T01:38:21;22.30;99.90
36004;DHT22;24526;50.918;5.360;2022-08-03T01:40:48;22.30;99.90
36004;DHT22;24526;50.918;5.360;2022-08-03T01:43:16;22.40;99.90
36004;DHT22;24526;50.918;5.360;2022-08-03T01:45:43;22.50;99.90
36004;DHT22;24526;50.918;5.360;2022-08-03T01:48:10;22.30;99.90
36004;DHT22;24526;50.918;5.360;2022-08-03T01:50:39;22.30;99.90
36004;DHT22;24526;50.918;5.360;2022-08-03T01:53:05;22.20;99.90
36004;DHT22;24526;50.918;5.360;2022-08-03T01:55:32;22.10;99.90
36004;DHT22;24526;50.918;5.360;2022-08-03T01:57:58;22.00;99.90
36004;DHT22;24526;50.918;5.360;2022-08-03T02:00:28;21.80;99.90
36004;DHT22;24526;50.918;5.360;2022-08-03T02:02:54;21.80;99.90
36004;DHT22;24526;50.918;5.360;2022-08-03T02:05:20;21.90;99.90
36004;DHT22;24526;50.918;5.360;2022-08-03T02:07:48;22.10;99.90
36004;DHT22;24526;50.918;5.360;2022-08-03T02:10:15;22.10;99.90
36004;DHT22;24526;50.918;5.360;2022-08-03T02:12:43;22.10;99.90
36004;DHT22;24526;50.918;5.360;2022-08-03T02:15:09;22.00;99.90
36004;DHT22;24526;50.918;5.360;2022-08-03T02:17:36;21.90;99.90
36004;DHT22;24526;50.918;5.360;2022-08-03T02:20:02;21.80;99.90
36004;DHT22;24526;50.918;5.360;2022-08-03T02:22:30;21.90;99.90
36004;DHT22;24526;50.918;5.360;2022-08-03T02:24:57;22.00;99.90
36004;DHT22;24526;50.918;5.360;2022-08-03T02:27:23;21.90;99.90
36004;DHT22;24526;50.918;5.360;2022-08-03T02:29:52;21.90;99.90
36004;DHT22;24526;50.918;5.360;2022-08-03T02:32:20;21.80;99.90
36004;DHT22;24526;50.918;5.360;2022-08-03T02:34:49;21.80;99.90
36004;DHT22;24526;50.918;5.360;2022-08-03T02:37:17;21.70;99.90
36004;DHT22;24526;50.918;5.360;2022-08-03T02:39:43;21.60;99.90
36004;DHT22;24526;50.918;5.360;2022-08-03T02:42:12;21.70;99.90
36004;DHT22;24526;50.918;5.360;2022-08-03T02:44:41;21.60;99.90
36004;DHT22;24526;50.918;5.360;2022-08-03T02:47:11;21.50;99.90
36004;DHT22;24526;50.918;5.360;2022-08-03T02:49:38;21.50;99.90
36004;DHT22;24526;50.918;5.360;2022-08-03T02:52:07;21.50;99.90
36004;DHT22;24526;50.918;5.360;2022-08-03T02:54:33;21.50;99.90
36004;DHT22;24526;50.918;5.360;2022-08-03T02:57:00;21.60;99.90
36004;DHT22;24526;50.918;5.360;2022-08-03T02:59:29;21.60;99.90
36004;DHT22;24526;50.918;5.360;2022-08-03T03:01:59;21.60;99.90
36004;DHT22;24526;50.918;5.360;2022-08-03T03:04:27;21.60;99.90
36004;DHT22;24526;50.918;5.360;2022-08-03T03:06:54;21.50;99.90
36004;DHT22;24526;50.918;5.360;2022-08-03T03:09:19;21.20;99.90
36004;DHT22;24526;50.918;5.360;2022-08-03T03:11:48;21.30;99.90
36004;DHT22;24526;50.918;5.360;2022-08-03T03:14:15;21.40;99.90
36004;DHT22;24526;50.918;5.360;2022-08-03T03:16:47;21.40;99.90
36004;DHT22;24526;50.918;5.360;2022-08-03T03:19:13;21.40;99.90
36004;DHT22;24526;50.918;5.360;2022-08-03T03:21:39;21.30;99.90
36004;DHT22;24526;50.918;5.360;2022-08-03T03:24:06;21.20;99.90
36004;DHT22;24526;50.918;5.360;2022-08-03T03:26:32;21.20;99.90
36004;DHT22;24526;50.918;5.360;2022-08-03T03:29:00;21.10;99.90
36004;DHT22;24526;50.918;5.360;2022-08-03T03:31:26;21.20;99.90
36004;DHT22;24526;50.918;5.360;2022-08-03T03:33:57;21.30;99.90
36004;DHT22;24526;50.918;5.360;2022-08-03T03:36:26;21.40;99.90
36004;DHT22;24526;50.918;5.360;2022-08-03T03:38:58;21.10;99.90
36004;DHT22;24526;50.918;5.360;2022-08-03T03:41:23;21.10;99.90
36004;DHT22;24526;50.918;5.360;2022-08-03T03:43:50;21.20;99.90
36004;DHT22;24526;50.918;5.360;2022-08-03T03:46:15;21.30;99.90
36004;DHT22;24526;50.918;5.360;2022-08-03T03:48:42;21.30;99.90
36004;DHT22;24526;50.918;5.360;2022-08-03T03:51:08;21.30;99.90
36004;DHT22;24526;50.918;5.360;2022-08-03T03:53:36;21.30;99.90
36004;DHT22;24526;50.918;5.360;2022-08-03T03:56:01;21.30;99.90
36004;DHT22;24526;50.918;5.360;2022-08-03T03:58:27;21.30;99.90
36004;DHT22;24526;50.918;5.360;2022-08-03T04:00:53;21.30;99.90
36004;DHT22;24526;50.918;5.360;2022-08-03T04:03:19;21.20;99.90
36004;DHT22;24526;50.918;5.360;2022-08-03T04:05:47;21.20;99.90
36004;DHT22;24526;50.918;5.360;2022-08-03T04:08:32;21.00;99.90
36004;DHT22;24526;50.918;5.360;2022-08-03T04:11:30;21.10;99.90
36004;DHT22;24526;50.918;5.360;2022-08-03T04:16:56;21.10;99.90
36004;DHT22;24526;50.918;5.360;2022-08-03T04:19:27;21.10;99.90
36004;DHT22;24526;50.918;5.360;2022-08-03T04:21:58;21.10;99.90
36004;DHT22;24526;50.918;5.360;2022-08-03T04:25:07;21.10;99.90
36004;DHT22;24526;50.918;5.360;2022-08-03T04:27:21;21.00;99.90
36004;DHT22;24526;50.918;5.360;2022-08-03T04:29:52;20.90;99.90
36004;DHT22;24526;50.918;5.360;2022-08-03T04:32:19;21.00;99.90
36004;DHT22;24526;50.918;5.360;2022-08-03T04:34:48;21.10;99.90
36004;DHT22;24526;50.918;5.360;2022-08-03T04:37:17;21.10;99.90
36004;DHT22;24526;50.918;5.360;2022-08-03T04:39:57;21.10;99.90
36004;DHT22;24526;50.918;5.360;2022-08-03T04:42:28;21.20;99.90
36004;DHT22;24526;50.918;5.360;2022-08-03T04:44:55;21.30;99.90
36004;DHT22;24526;50.918;5.360;2022-08-03T04:47:24;21.30;99.90
36004;DHT22;24526;50.918;5.360;2022-08-03T04:50:00;21.30;99.90
36004;DHT22;24526;50.918;5.360;2022-08-03T04:52:29;21.30;99.90
36004;DHT22;24526;50.918;5.360;2022-08-03T04:55:00;21.30;99.90
36004;DHT22;24526;50.918;5.360;2022-08-03T04:57:26;21.40;99.90
36004;DHT22;24526;50.918;5.360;2022-08-03T04:59:54;21.60;99.90
36004;DHT22;24526;50.918;5.360;2022-08-03T05:02:39;21.60;99.90
36004;DHT22;24526;50.918;5.360;2022-08-03T05:05:05;21.70;99.90
36004;DHT22;24526;50.918;5.360;2022-08-03T05:07:31;21.80;99.90
36004;DHT22;24526;50.918;5.360;2022-08-03T05:09:58;21.70;99.90
36004;DHT22;24526;50.918;5.360;2022-08-03T05:12:23;21.80;99.90
36004;DHT22;24526;50.918;5.360;2022-08-03T05:14:49;21.90;99.90
36004;DHT22;24526;50.918;5.360;2022-08-03T05:17:15;22.10;99.90
36004;DHT22;24526;50.918;5.360;2022-08-03T05:19:41;22.30;99.90
36004;DHT22;24526;50.918;5.360;2022-08-03T05:22:07;22.30;99.90
36004;DHT22;24526;50.918;5.360;2022-08-03T05:24:32;22.30;99.90
36004;DHT22;24526;50.918;5.360;2022-08-03T05:26:58;22.40;99.90
36004;DHT22;24526;50.918;5.360;2022-08-03T05:29:23;22.50;99.90
36004;DHT22;24526;50.918;5.360;2022-08-03T05:31:49;22.60;99.90
36004;DHT22;24526;50.918;5.360;2022-08-03T05:34:14;22.70;99.90
36004;DHT22;24526;50.918;5.360;2022-08-03T05:36:40;22.80;99.90
36004;DHT22;24526;50.918;5.360;2022-08-03T05:39:06;22.70;99.90
36004;DHT22;24526;50.918;5.360;2022-08-03T05:41:31;22.80;99.90
36004;DHT22;24526;50.918;5.360;2022-08-03T05:44:05;22.80;99.90
36004;DHT22;24526;50.918;5.360;2022-08-03T05:46:31;22.90;99.90
36004;DHT22;24526;50.918;5.360;2022-08-03T05:48:56;23.00;99.90
36004;DHT22;24526;50.918;5.360;2022-08-03T05:51:22;23.10;99.90
36004;DHT22;24526;50.918;5.360;2022-08-03T05:53:48;23.20;99.90
36004;DHT22;24526;50.918;5.360;2022-08-03T05:56:14;23.30;99.90
36004;DHT22;24526;50.918;5.360;2022-08-03T05:58:45;23.30;99.90
36004;DHT22;24526;50.918;5.360;2022-08-03T06:01:11;23.50;99.90
36004;DHT22;24526;50.918;5.360;2022-08-03T06:03:37;23.60;99.90
36004;DHT22;24526;50.918;5.360;2022-08-03T06:06:03;23.70;99.90
36004;DHT22;24526;50.918;5.360;2022-08-03T06:08:28;23.90;99.90
36004;DHT22;24526;50.918;5.360;2022-08-03T06:10:54;24.00;99.90
36004;DHT22;24526;50.918;5.360;2022-08-03T06:13:20;24.20;99.80
36004;DHT22;24526;50.918;5.360;2022-08-03T06:15:46;24.30;99.70
36004;DHT22;24526;50.918;5.360;2022-08-03T06:18:12;24.30;99.20
36004;DHT22;24526;50.918;5.360;2022-08-03T06:20:40;24.50;98.70
36004;DHT22;24526;50.918;5.360;2022-08-03T06:23:06;24.70;98.70
36004;DHT22;24526;50.918;5.360;2022-08-03T06:25:31;24.80;98.30
36004;DHT22;24526;50.918;5.360;2022-08-03T06:27:57;24.80;97.60
36004;DHT22;24526;50.918;5.360;2022-08-03T06:30:24;24.90;97.70
36004;DHT22;24526;50.918;5.360;2022-08-03T06:32:49;25.00;97.70
36004;DHT22;24526;50.918;5.360;2022-08-03T06:35:15;25.10;97.70
36004;DHT22;24526;50.918;5.360;2022-08-03T06:37:41;24.90;97.00
36004;DHT22;24526;50.918;5.360;2022-08-03T06:40:07;25.40;96.80
36004;DHT22;24526;50.918;5.360;2022-08-03T06:42:33;25.60;96.30
36004;DHT22;24526;50.918;5.360;2022-08-03T06:44:59;25.60;96.30
36004;DHT22;24526;50.918;5.360;2022-08-03T06:47:28;25.70;96.20
36004;DHT22;24526;50.918;5.360;2022-08-03T06:49:53;25.80;96.10
36004;DHT22;24526;50.918;5.360;2022-08-03T06:52:19;25.90;95.80
36004;DHT22;24526;50.918;5.360;2022-08-03T06:54:45;26.10;95.30
36004;DHT22;24526;50.918;5.360;2022-08-03T06:57:10;26.10;95.20
36004;DHT22;24526;50.918;5.360;2022-08-03T06:59:37;26.20;95.00
36004;DHT22;24526;50.918;5.360;2022-08-03T07:02:02;26.40;94.80
36004;DHT22;24526;50.918;5.360;2022-08-03T07:04:28;26.40;94.40
36004;DHT22;24526;50.918;5.360;2022-08-03T07:06:54;26.50;94.30
36004;DHT22;24526;50.918;5.360;2022-08-03T07:09:20;26.50;94.20
36004;DHT22;24526;50.918;5.360;2022-08-03T07:11:46;26.60;94.20
36004;DHT22;24526;50.918;5.360;2022-08-03T07:14:12;26.60;94.10
36004;DHT22;24526;50.918;5.360;2022-08-03T07:16:38;26.60;94.10
36004;DHT22;24526;50.918;5.360;2022-08-03T07:19:06;26.80;93.80
36004;DHT22;24526;50.918;5.360;2022-08-03T07:21:32;26.90;93.60
36004;DHT22;24526;50.918;5.360;2022-08-03T07:23:58;27.00;93.40
36004;DHT22;24526;50.918;5.360;2022-08-03T07:26:26;27.10;93.40
36004;DHT22;24526;50.918;5.360;2022-08-03T07:28:51;27.20;93.00
36004;DHT22;24526;50.918;5.360;2022-08-03T07:31:19;27.20;93.10
36004;DHT22;24526;50.918;5.360;2022-08-03T07:33:45;27.30;93.20
36004;DHT22;24526;50.918;5.360;2022-08-03T07:36:10;27.30;93.10
36004;DHT22;24526;50.918;5.360;2022-08-03T07:38:36;27.40;92.90
36004;DHT22;24526;50.918;5.360;2022-08-03T07:41:02;27.50;92.70
36004;DHT22;24526;50.918;5.360;2022-08-03T07:43:27;27.50;92.60
36004;DHT22;24526;50.918;5.360;2022-08-03T07:45:53;27.60;91.80
36004;DHT22;24526;50.918;5.360;2022-08-03T07:48:19;27.70;91.70
36004;DHT22;24526;50.918;5.360;2022-08-03T07:50:45;27.80;91.10
36004;DHT22;24526;50.918;5.360;2022-08-03T07:53:11;27.90;90.70
36004;DHT22;24526;50.918;5.360;2022-08-03T07:55:42;27.90;90.90
36004;DHT22;24526;50.918;5.360;2022-08-03T07:58:08;27.80;90.40
36004;DHT22;24526;50.918;5.360;2022-08-03T08:00:36;27.90;89.90
36004;DHT22;24526;50.918;5.360;2022-08-03T08:03:05;28.00;89.60
36004;DHT22;24526;50.918;5.360;2022-08-03T08:05:30;28.10;89.50
36004;DHT22;24526;50.918;5.360;2022-08-03T08:07:56;28.20;87.70
36004;DHT22;24526;50.918;5.360;2022-08-03T08:10:22;28.20;87.20
36004;DHT22;24526;50.918;5.360;2022-08-03T08:12:48;28.30;86.60
36004;DHT22;24526;50.918;5.360;2022-08-03T08:15:14;28.20;86.20
36004;DHT22;24526;50.918;5.360;2022-08-03T08:17:40;28.30;87.30
36004;DHT22;24526;50.918;5.360;2022-08-03T08:20:06;28.30;85.70
36004;DHT22;24526;50.918;5.360;2022-08-03T08:22:32;28.30;86.30
36004;DHT22;24526;50.918;5.360;2022-08-03T08:24:58;28.50;85.80
36004;DHT22;24526;50.918;5.360;2022-08-03T08:27:25;28.60;84.80
36004;DHT22;24526;50.918;5.360;2022-08-03T08:29:50;28.60;82.50
36004;DHT22;24526;50.918;5.360;2022-08-03T08:32:16;28.70;81.90
36004;DHT22;24526;50.918;5.360;2022-08-03T08:34:42;28.80;80.80
36004;DHT22;24526;50.918;5.360;2022-08-03T08:37:08;28.70;82.00
36004;DHT22;24526;50.918;5.360;2022-08-03T08:39:34;28.80;81.10
36004;DHT22;24526;50.918;5.360;2022-08-03T08:42:00;28.90;80.90
36004;DHT22;24526;50.918;5.360;2022-08-03T08:44:26;29.00;80.30
36004;DHT22;24526;50.918;5.360;2022-08-03T08:46:51;28.90;81.00
36004;DHT22;24526;50.918;5.360;2022-08-03T08:49:20;28.90;80.90
36004;DHT22;24526;50.918;5.360;2022-08-03T08:51:47;28.90;81.90
36004;DHT22;24526;50.918;5.360;2022-08-03T08:54:14;29.00;81.80
36004;DHT22;24526;50.918;5.360;2022-08-03T08:56:42;29.10;81.70
36004;DHT22;24526;50.918;5.360;2022-08-03T08:59:10;29.20;81.30
36004;DHT22;24526;50.918;5.360;2022-08-03T09:01:39;29.30;81.00
36004;DHT22;24526;50.918;5.360;2022-08-03T09:04:07;29.40;81.80
36004;DHT22;24526;50.918;5.360;2022-08-03T09:06:34;29.50;81.10
36004;DHT22;24526;50.918;5.360;2022-08-03T09:08:59;29.60;80.20
36004;DHT22;24526;50.918;5.360;2022-08-03T09:11:25;29.70;80.50
36004;DHT22;24526;50.918;5.360;2022-08-03T09:13:51;29.70;80.40
36004;DHT22;24526;50.918;5.360;2022-08-03T09:16:20;29.70;80.30
36004;DHT22;24526;50.918;5.360;2022-08-03T09:18:47;29.70;79.30
36004;DHT22;24526;50.918;5.360;2022-08-03T09:21:23;29.70;79.30
36004;DHT22;24526;50.918;5.360;2022-08-03T09:23:53;29.70;79.00
36004;DHT22;24526;50.918;5.360;2022-08-03T09:26:25;29.80;78.80
36004;DHT22;24526;50.918;5.360;2022-08-03T09:28:57;29.70;78.30
36004;DHT22;24526;50.918;5.360;2022-08-03T09:31:30;29.60;79.40
36004;DHT22;24526;50.918;5.360;2022-08-03T09:33:57;29.60;79.70
36004;DHT22;24526;50.918;5.360;2022-08-03T09:39:06;29.90;78.50
36004;DHT22;24526;50.918;5.360;2022-08-03T09:41:35;30.00;79.30
36004;DHT22;24526;50.918;5.360;2022-08-03T09:44:00;30.10;77.90
36004;DHT22;24526;50.918;5.360;2022-08-03T09:46:26;30.10;77.60
36004;DHT22;24526;50.918;5.360;2022-08-03T09:49:11;30.20;77.50
36004;DHT22;24526;50.918;5.360;2022-08-03T09:51:37;30.30;76.30
36004;DHT22;24526;50.918;5.360;2022-08-03T09:54:04;30.40;76.20
36004;DHT22;24526;50.918;5.360;2022-08-03T09:56:37;30.50;76.50
36004;DHT22;24526;50.918;5.360;2022-08-03T09:59:05;30.50;74.40
36004;DHT22;24526;50.918;5.360;2022-08-03T10:01:31;30.60;74.00
36004;DHT22;24526;50.918;5.360;2022-08-03T10:04:01;30.60;73.40
36004;DHT22;24526;50.918;5.360;2022-08-03T10:06:27;30.50;74.80
36004;DHT22;24526;50.918;5.360;2022-08-03T10:09:06;30.60;74.20
36004;DHT22;24526;50.918;5.360;2022-08-03T10:11:32;30.60;73.60
36004;DHT22;24526;50.918;5.360;2022-08-03T10:14:02;30.60;73.30
36004;DHT22;24526;50.918;5.360;2022-08-03T10:16:35;30.60;73.40
36004;DHT22;24526;50.918;5.360;2022-08-03T10:19:05;30.70;73.30
36004;DHT22;24526;50.918;5.360;2022-08-03T10:21:32;30.60;73.40
36004;DHT22;24526;50.918;5.360;2022-08-03T10:24:01;30.70;72.00
36004;DHT22;24526;50.918;5.360;2022-08-03T10:26:33;30.70;73.00
36004;DHT22;24526;50.918;5.360;2022-08-03T10:29:01;30.70;73.00
36004;DHT22;24526;50.918;5.360;2022-08-03T10:31:33;30.70;73.50
36004;DHT22;24526;50.918;5.360;2022-08-03T10:33:59;30.90;73.60
36004;DHT22;24526;50.918;5.360;2022-08-03T10:36:28;30.90;72.50
36004;DHT22;24526;50.918;5.360;2022-08-03T10:38:54;30.80;73.40
36004;DHT22;24526;50.918;5.360;2022-08-03T10:41:22;30.90;72.60
36004;DHT22;24526;50.918;5.360;2022-08-03T10:43:57;31.00;73.00
36004;DHT22;24526;50.918;5.360;2022-08-03T10:46:23;30.90;73.00
36004;DHT22;24526;50.918;5.360;2022-08-03T10:48:50;30.90;72.00
36004;DHT22;24526;50.918;5.360;2022-08-03T10:51:16;31.00;71.00
36004;DHT22;24526;50.918;5.360;2022-08-03T10:53:43;31.10;70.80
36004;DHT22;24526;50.918;5.360;2022-08-03T10:59:12;31.30;71.80
36004;DHT22;24526;50.918;5.360;2022-08-03T11:01:53;31.40;71.60
36004;DHT22;24526;50.918;5.360;2022-08-03T11:04:20;31.30;71.40
36004;DHT22;24526;50.918;5.360;2022-08-03T11:06:46;31.20;71.40
36004;DHT22;24526;50.918;5.360;2022-08-03T11:09:13;31.30;71.80
36004;DHT22;24526;50.918;5.360;2022-08-03T11:11:42;31.40;71.10
36004;DHT22;24526;50.918;5.360;2022-08-03T11:14:12;31.50;71.40
36004;DHT22;24526;50.918;5.360;2022-08-03T11:16:42;31.50;70.30
36004;DHT22;24526;50.918;5.360;2022-08-03T11:19:12;31.50;70.70
36004;DHT22;24526;50.918;5.360;2022-08-03T11:35:30;31.60;70.40
36004;DHT22;24526;50.918;5.360;2022-08-03T11:42:59;31.80;70.50
36004;DHT22;24526;50.918;5.360;2022-08-03T11:45:25;31.80;70.10
36004;DHT22;24526;50.918;5.360;2022-08-03T11:47:52;31.90;70.00
36004;DHT22;24526;50.918;5.360;2022-08-03T11:50:18;31.90;70.70
36004;DHT22;24526;50.918;5.360;2022-08-03T11:52:45;31.90;70.40
36004;DHT22;24526;50.918;5.360;2022-08-03T11:55:11;31.80;70.10
36004;DHT22;24526;50.918;5.360;2022-08-03T11:57:40;31.90;70.40
36004;DHT22;24526;50.918;5.360;2022-08-03T12:00:26;31.90;69.60
36004;DHT22;24526;50.918;5.360;2022-08-03T12:02:55;31.80;68.50
36004;DHT22;24526;50.918;5.360;2022-08-03T12:05:33;31.80;70.20
36004;DHT22;24526;50.918;5.360;2022-08-03T12:07:58;32.00;70.60
36004;DHT22;24526;50.918;5.360;2022-08-03T12:10:24;32.10;69.70
36004;DHT22;24526;50.918;5.360;2022-08-03T12:12:54;32.20;69.90
36004;DHT22;24526;50.918;5.360;2022-08-03T12:15:29;32.30;69.80
36004;DHT22;24526;50.918;5.360;2022-08-03T12:17:55;32.50;69.10
36004;DHT22;24526;50.918;5.360;2022-08-03T12:20:23;32.50;68.80
36004;DHT22;24526;50.918;5.360;2022-08-03T12:22:52;32.60;68.00
36004;DHT22;24526;50.918;5.360;2022-08-03T12:25:22;32.70;67.30
36004;DHT22;24526;50.918;5.360;2022-08-03T12:27:48;32.70;67.20
36004;DHT22;24526;50.918;5.360;2022-08-03T12:30:16;32.90;67.20
36004;DHT22;24526;50.918;5.360;2022-08-03T12:32:42;32.90;67.10
36004;DHT22;24526;50.918;5.360;2022-08-03T12:35:08;32.90;65.50
36004;DHT22;24526;50.918;5.360;2022-08-03T12:37:34;32.90;65.70
36004;DHT22;24526;50.918;5.360;2022-08-03T12:40:00;33.00;65.40
36004;DHT22;24526;50.918;5.360;2022-08-03T12:42:34;33.10;67.30
36004;DHT22;24526;50.918;5.360;2022-08-03T12:47:49;33.20;64.10
36004;DHT22;24526;50.918;5.360;2022-08-03T12:50:24;33.20;65.30
36004;DHT22;24526;50.918;5.360;2022-08-03T12:52:52;33.10;64.50
36004;DHT22;24526;50.918;5.360;2022-08-03T12:55:19;33.10;65.90
36004;DHT22;24526;50.918;5.360;2022-08-03T12:57:45;33.30;65.10
36004;DHT22;24526;50.918;5.360;2022-08-03T13:00:12;33.50;63.50
36004;DHT22;24526;50.918;5.360;2022-08-03T13:02:38;33.60;64.70
36004;DHT22;24526;50.918;5.360;2022-08-03T13:05:09;33.80;65.00
36004;DHT22;24526;50.918;5.360;2022-08-03T13:07:42;34.00;61.80
36004;DHT22;24526;50.918;5.360;2022-08-03T13:10:11;34.50;61.80
36004;DHT22;24526;50.918;5.360;2022-08-03T13:12:49;34.90;59.80
36004;DHT22;24526;50.918;5.360;2022-08-03T13:15:14;35.60;60.70
36004;DHT22;24526;50.918;5.360;2022-08-03T13:17:40;36.80;59.90
36004;DHT22;24526;50.918;5.360;2022-08-03T13:20:07;38.40;56.30
36004;DHT22;24526;50.918;5.360;2022-08-03T13:22:35;40.10;53.00
36004;DHT22;24526;50.918;5.360;2022-08-03T13:25:00;40.60;51.80
36004;DHT22;24526;50.918;5.360;2022-08-03T13:27:30;39.90;50.90
36004;DHT22;24526;50.918;5.360;2022-08-03T13:29:55;39.40;50.80
36004;DHT22;24526;50.918;5.360;2022-08-03T13:32:22;39.50;51.40
36004;DHT22;24526;50.918;5.360;2022-08-03T13:34:48;40.00;50.70
36004;DHT22;24526;50.918;5.360;2022-08-03T13:37:14;41.30;48.50
36004;DHT22;24526;50.918;5.360;2022-08-03T13:39:40;42.60;46.40
36004;DHT22;24526;50.918;5.360;2022-08-03T13:42:05;44.40;44.70
36004;DHT22;24526;50.918;5.360;2022-08-03T13:44:31;46.30;41.70
36004;DHT22;24526;50.918;5.360;2022-08-03T13:47:01;47.40;39.00
36004;DHT22;24526;50.918;5.360;2022-08-03T13:49:26;48.20;37.10
36004;DHT22;24526;50.918;5.360;2022-08-03T13:51:53;49.00;36.50
36004;DHT22;24526;50.918;5.360;2022-08-03T13:54:19;49.80;33.90
36004;DHT22;24526;50.918;5.360;2022-08-03T13:56:45;50.40;32.50
36004;DHT22;24526;50.918;5.360;2022-08-03T13:59:20;50.00;31.80
36004;DHT22;24526;50.918;5.360;2022-08-03T14:01:46;50.40;31.50
36004;DHT22;24526;50.918;5.360;2022-08-03T14:04:11;51.20;30.60
36004;DHT22;24526;50.918;5.360;2022-08-03T14:06:39;51.10;30.70
36004;DHT22;24526;50.918;5.360;2022-08-03T14:09:05;49.90;30.00
36004;DHT22;24526;50.918;5.360;2022-08-03T14:11:30;48.20;31.90
36004;DHT22;24526;50.918;5.360;2022-08-03T14:13:56;46.30;33.20
36004;DHT22;24526;50.918;5.360;2022-08-03T14:16:22;44.70;34.50
36004;DHT22;24526;50.918;5.360;2022-08-03T14:18:47;43.20;36.00
36004;DHT22;24526;50.918;5.360;2022-08-03T14:21:13;41.90;37.40
36004;DHT22;24526;50.918;5.360;2022-08-03T14:23:38;41.00;38.30
36004;DHT22;24526;50.918;5.360;2022-08-03T14:26:05;40.30;39.70
36004;DHT22;24526;50.918;5.360;2022-08-03T14:28:31;39.50;41.20
36004;DHT22;24526;50.918;5.360;2022-08-03T14:30:57;38.70;42.00
36004;DHT22;24526;50.918;5.360;2022-08-03T14:33:22;38.00;43.00
36004;DHT22;24526;50.918;5.360;2022-08-03T14:35:49;37.50;43.90
36004;DHT22;24526;50.918;5.360;2022-08-03T14:38:16;37.10;45.00
36004;DHT22;24526;50.918;5.360;2022-08-03T14:40:44;36.90;45.40
36004;DHT22;24526;50.918;5.360;2022-08-03T14:43:10;36.60;45.50
36004;DHT22;24526;50.918;5.360;2022-08-03T14:45:37;36.40;45.80
36004;DHT22;24526;50.918;5.360;2022-08-03T14:48:05;36.10;46.70
36004;DHT22;24526;50.918;5.360;2022-08-03T14:50:31;35.80;48.10
36004;DHT22;24526;50.918;5.360;2022-08-03T14:52:56;35.40;48.50
36004;DHT22;24526;50.918;5.360;2022-08-03T14:55:22;35.20;48.40
36004;DHT22;24526;50.918;5.360;2022-08-03T14:57:48;35.00;49.20
36004;DHT22;24526;50.918;5.360;2022-08-03T15:00:14;34.70;49.90
36004;DHT22;24526;50.918;5.360;2022-08-03T15:02:39;34.50;49.60
36004;DHT22;24526;50.918;5.360;2022-08-03T15:05:05;34.30;50.10
36004;DHT22;24526;50.918;5.360;2022-08-03T15:07:31;34.20;49.80
36004;DHT22;24526;50.918;5.360;2022-08-03T15:09:59;34.00;50.40
36004;DHT22;24526;50.918;5.360;2022-08-03T15:12:25;33.80;50.00
36004;DHT22;24526;50.918;5.360;2022-08-03T15:14:51;33.80;50.40
36004;DHT22;24526;50.918;5.360;2022-08-03T15:17:17;33.80;51.20
36004;DHT22;24526;50.918;5.360;2022-08-03T15:19:43;33.70;51.80
36004;DHT22;24526;50.918;5.360;2022-08-03T15:22:11;33.60;51.90
36004;DHT22;24526;50.918;5.360;2022-08-03T15:24:40;33.50;52.00
36004;DHT22;24526;50.918;5.360;2022-08-03T15:27:06;33.50;52.60
36004;DHT22;24526;50.918;5.360;2022-08-03T15:29:31;33.40;53.40
36004;DHT22;24526;50.918;5.360;2022-08-03T15:31:57;33.40;53.10
36004;DHT22;24526;50.918;5.360;2022-08-03T15:34:23;33.30;53.50
36004;DHT22;24526;50.918;5.360;2022-08-03T15:36:49;33.20;52.80
36004;DHT22;24526;50.918;5.360;2022-08-03T15:39:14;33.30;52.50
36004;DHT22;24526;50.918;5.360;2022-08-03T15:41:40;33.30;52.20
36004;DHT22;24526;50.918;5.360;2022-08-03T15:44:06;33.30;52.40
36004;DHT22;24526;50.918;5.360;2022-08-03T15:46:32;33.30;53.10
36004;DHT22;24526;50.918;5.360;2022-08-03T15:48:58;33.20;53.70
36004;DHT22;24526;50.918;5.360;2022-08-03T15:51:24;33.20;53.00
36004;DHT22;24526;50.918;5.360;2022-08-03T15:53:49;33.30;53.20
36004;DHT22;24526;50.918;5.360;2022-08-03T15:56:15;33.30;53.20
36004;DHT22;24526;50.918;5.360;2022-08-03T15:58:41;33.20;53.50
36004;DHT22;24526;50.918;5.360;2022-08-03T16:01:09;33.10;53.70
36004;DHT22;24526;50.918;5.360;2022-08-03T16:03:35;33.10;53.50
36004;DHT22;24526;50.918;5.360;2022-08-03T16:06:02;33.00;53.10
36004;DHT22;24526;50.918;5.360;2022-08-03T16:08:30;33.00;53.40
36004;DHT22;24526;50.918;5.360;2022-08-03T16:10:56;32.80;52.90
36004;DHT22;24526;50.918;5.360;2022-08-03T16:13:21;32.70;52.70
36004;DHT22;24526;50.918;5.360;2022-08-03T16:15:47;32.60;53.70
36004;DHT22;24526;50.918;5.360;2022-08-03T16:18:13;32.60;53.80